Tiempo atmosférico en la estación meteorológica de Villafáfila, Zamora (690 m.)



Fecha
DESCASC
Temp. máxima en grados centígrados (hora)
DESCASC
Temp. mínima en grados centígrados (hora)
DESCASC
Temp. media en grados centígrados
DESCASC
Racha de viento máxima en m/sg (hora)
DESCASC
Velocidad máxima media en intervalos de 10 minutos(hora)
DESCASC
Precipitaciones diarias en mm
DESCASC
Precipitaciones de 00:00 a 06:00 en mm
DESCASC
Precipitaciones de 06:00 a 12:00 en mm
DESCASC
Precipitaciones de 12:00 a 18:00 en mm
DESCASC
Precipitaciones de 18:00 a 24:00 en mm
DESCASC
16-02-2020 13 (15:40) 3.6 (02:50) 8.3 13.06 (13:50) 8.33 (12:40) 0 0 0 0 0
14-02-2020 11.9 (17:00) 2 (23:59) 6.9 4.17 (17:10) 2.78 (19:30) 0 0 0 0 0
13-02-2020 13.9 (16:50) 5.9 (00:00) 9.9 13.61 (12:50) 8.89 (12:40) 0 0 0 0 0
12-02-2020 13.8 (17:30) 5.1 (00:00) 9.5 3.89 (21:30) 2.78 (21:20) 0 0 0 0 0
11-02-2020 15.6 (14:20) 7.3 (00:00) 11.5 6.67 (16:50) 4.17 (17:00) 0 0 0 0 0
10-02-2020 15.7 (15:50) 9 (00:00) 12.3 13.61 (16:50) 9.44 (04:10) 0 0 0 0 0
09-02-2020 13.3 (16:50) 2.7 (00:00) 8 10.83 (13:50) 6.67 (13:50) 0 0 0 0 0
08-02-2020 13.4 (16:30) 3.4 (00:00) 8.4 9.17 (16:20) 6.39 (16:40) 1.6 0 1.6 0 0
07-02-2020 13.3 (16:40) -0.3 (00:00) 6.5 6.39 (17:50) 4.44 (17:40) 0 0 0 0 0
06-02-2020 12.7 (17:00) -1.9 (-00:0) 5.4 5.56 (00:50) 3.33 (00:40) 0 0 0 0 0
05-02-2020 10.9 (16:20) 0.1 (00:00) 5.5 9.72 (12:50) 6.94 (11:20) 0 0 0 0 0
04-02-2020 11 (15:50) 3.8 (00:00) 7.4 8.61 (22:50) 6.39 (23:59) 0 0 0 0 0
03-02-2020 13 (17:20) 4.2 (04:20) 8.6 5.28 (10:50) 3.61 (10:50) 0 0 0 0 0
02-02-2020 17.3 (16:20) 7 (00:00) 12.1 8.33 (00:50) 5.83 (05:30) 0 0 0 0 0
01-02-2020 16.4 (15:30) 10.4 (00:00) 13.4 11.94 (13:50) 8.06 (13:30) 0 0 0 0 0
31-01-2020 13.5 (14:50) 9.8 (00:00) 11.7 10.28 (15:00) 7.5 (15:00) 0.8 0.2 0 0.2 0.4
30-01-2020 9.9 (00:00) 7.9 (00:00) 8.9 11.11 (06:50) 7.22 (06:50) 0.6 0 0 0.4 0.2
29-01-2020 11.1 (15:20) 8.8 (00:00) 10 9.72 (16:50) 6.11 (17:00) 3.2 0 1.8 0.2 1.2
28-01-2020 11.2 (15:10) 8.2 (00:00) 9.7 10.83 (23:50) 6.39 (00:20) 6.8 0.8 0 1.6 4.4
27-01-2020 11.1 (16:10) 4.6 (00:00) 7.9 15.56 (14:50) 10.28 (16:00) 0.2 0 0 0.2 0
26-01-2020 8.7 (16:10) -1.9 (-00:0) 3.4 12.78 (15:50) 6.39 (15:40) 0.2 0 0.2 0 0
25-01-2020 8.1 (15:20) 0.2 (00:00) 4.2 4.44 (06:50) 3.33 (07:40) 1.4 0 1.4 0 0
24-01-2020 8.9 (14:00) 2.2 (00:00) 5.5 4.44 (15:00) 3.61 (21:30) 0.4 0 0.4 0 0
23-01-2020 9.6 (16:00) -1.3 (-00:0) 4.2 7.5 (02:50) 5.83 (11:10) 0 0 0 0 0
22-01-2020 11 (15:50) 2.6 (00:00) 6.8 16.39 (11:50) 10.83 (11:50) 0 0 0 0 0

Gráficas

Temp. máximas Temp. mínimas Temp. medias Precipitaciones Rachas de viento máximas Velocidades máximas media en intervalos de 10 minutos

Datos horarios

Fecha y hora oficial Temperatura (ºC) Velocidad del viento (km/h) Dirección del viento Racha (km/h) Dirección de racha Precipitación (mm) Presión (hPa) Tendencia (hPa) Humedad (%)
2020-02-20 23:00:00 1.7 6 Norte 8 Norte 0 -- -- 89
2020-02-20 22:00:00 2.1 7 Norte 9 Norte 0 -- -- 85
2020-02-20 21:00:00 3 7 Norte 9 Norte 0 -- -- 84
2020-02-20 20:00:00 6.3 5 Este 7 Nordeste 0 -- -- 74
2020-02-20 19:00:00 11.2 0 Calma 6 Sudeste 0 -- -- 61
2020-02-20 18:00:00 14 3 Sudeste 8 Norte 0 -- -- 50
2020-02-20 17:00:00 14.6 0 Calma 8 Sudoeste 0 -- -- 53
2020-02-20 16:00:00 13.4 5 Sudoeste 11 Sudoeste 0 -- -- 54
2020-02-20 15:00:00 12 6 Sur 13 Sur 0 -- -- 61
2020-02-20 14:00:00 10.3 3 Sudoeste 8 Sudoeste 0 -- -- 65
2020-02-20 13:00:00 8.3 4 Sudoeste 9 Sudoeste 0 -- -- 70
2020-02-20 12:00:00 6.5 4 Sudeste 10 Sur 0 -- -- 77
2020-02-20 11:00:00 3.8 4 Norte 8 Noroeste 0 -- -- 85
2020-02-20 10:00:00 0.8 4 Norte 9 Norte 0 -- -- 94
2020-02-20 09:00:00 -2.4 5 Norte 11 Noroeste 0 -- -- 95
2020-02-20 08:00:00 -4 4 Noroeste 8 Norte 0 -- -- 93
2020-02-20 07:00:00 -4.2 6 Norte 11 Noroeste 0 -- -- 93
2020-02-20 06:00:00 -- -- -- -- -- -- -- -- --
2020-02-20 05:00:00 -3.2 5 Noroeste 6 Noroeste 0 -- -- 92
2020-02-20 04:00:00 -2.2 3 Oeste 4 Oeste 0 -- -- 93
2020-02-20 03:00:00 -1.9 3 Norte 6 Noroeste 0 -- -- 92
2020-02-20 02:00:00 -1.4 4 Norte 9 Noroeste 0 -- -- 92
2020-02-20 01:00:00 -1.2 5 Noroeste 8 Noroeste 0 -- -- 90
2020-02-20 00:00:00 0 0 Calma 5 Nordeste 0 -- -- 90
2020-02-19 23:00:00 0.6 3 Nordeste 6 Nordeste 0 -- -- 89
2020-02-19 22:00:00 1.7 3 Nordeste 5 Nordeste 0 -- -- 87
2020-02-19 21:00:00 3.2 5 Este 6 Este 0 -- -- 81
2020-02-19 20:00:00 5.5 4 Nordeste 6 Norte 0 -- -- 75
2020-02-19 19:00:00 9.6 2 Norte 5 Norte 0 -- -- 64
2020-02-19 18:00:00 11.8 3 Sur 9 Sur 0 -- -- 53
2020-02-19 17:00:00 11.8 5 Sur 12 Sur 0 -- -- 53
2020-02-19 16:00:00 11.1 6 Sudoeste 13 Sur 0 -- -- 58
2020-02-19 15:00:00 10.5 8 Sudeste 15 Sur 0 -- -- 61
2020-02-19 14:00:00 9.4 4 Sur 12 Este 0 -- -- 64
2020-02-19 13:00:00 8.2 7 Este 13 Este 0 -- -- 68
2020-02-19 12:00:00 6.3 4 Norte 12 Este 0 -- -- 78
2020-02-19 11:00:00 4.2 8 Este 12 Este 0 -- -- 84
2020-02-19 10:00:00 0.8 5 Norte 13 Norte 0 -- -- 93
2020-02-19 09:00:00 -2.7 8 Norte 9 Norte 0 -- -- 93
2020-02-19 08:00:00 -3.3 2 Norte 13 Noroeste 0 -- -- 91
2020-02-19 07:00:00 -2.6 11 Noroeste 17 Noroeste 0 -- -- 93
2020-02-19 06:00:00 -2.4 7 Noroeste 15 Norte 0 -- -- 93
2020-02-19 05:00:00 -2.4 10 Noroeste 13 Noroeste 0 -- -- 92
2020-02-19 04:00:00 -1.8 6 Noroeste 9 Noroeste 0 -- -- 92
2020-02-19 03:00:00 -1.3 5 Noroeste 10 Norte 0 -- -- 92
2020-02-19 02:00:00 -1.1 10 Norte 11 Norte 0 -- -- 91
2020-02-19 01:00:00 -0.3 3 Este 8 Norte 0 -- -- 90
2020-02-19 00:00:00 0.3 4 Norte 12 Norte 0 -- -- 89
2020-02-18 23:00:00 0.5 9 Nordeste 12 Nordeste 0 -- -- 88
2020-02-18 22:00:00 1.5 3 Nordeste 8 Nordeste 0 -- -- 87
2020-02-18 21:00:00 2.6 5 Nordeste 9 Este 0 -- -- 84
2020-02-18 20:00:00 4.3 8 Este 9 Este 0 -- -- 78
2020-02-18 19:00:00 7.4 5 Este 12 Este 0 -- -- 70
2020-02-18 18:00:00 9.9 9 Este 14 Nordeste 0 -- -- 58
2020-02-18 17:00:00 10.5 8 Nordeste 19 Este 0 -- -- 53
2020-02-18 16:00:00 10.6 7 Nordeste 21 Nordeste 0 -- -- 55
2020-02-18 15:00:00 10.1 13 Norte 30 Nordeste 0 -- -- 57
2020-02-18 14:00:00 10.1 15 Este 25 Este 0 -- -- 59
2020-02-18 13:00:00 9.1 16 Nordeste 24 Este 0 -- -- 61
2020-02-18 12:00:00 8.3 17 Nordeste 23 Nordeste 0 -- -- 75
2020-02-18 11:00:00 6.8 13 Norte 20 Nordeste 0 -- -- 82
2020-02-18 10:00:00 4.5 12 Norte 16 Norte 0 -- -- 93
2020-02-18 09:00:00 2.7 11 Noroeste 18 Norte 0 -- -- 95
2020-02-18 08:00:00 2.1 12 Norte 17 Noroeste 0 -- -- 95
2020-02-18 07:00:00 2 11 Noroeste 15 Norte 0 -- -- 95
2020-02-18 06:00:00 1.4 11 Norte 16 Norte 0 -- -- 96
2020-02-18 05:00:00 0.3 10 Norte 15 Norte 0 -- -- 95
2020-02-18 04:00:00 0 7 Norte 15 Norte 0 -- -- 94
2020-02-18 03:00:00 0.8 10 Norte 20 Norte 0 -- -- 93
2020-02-18 02:00:00 1.1 11 Norte 14 Norte 0 -- -- 93
2020-02-18 01:00:00 1.3 9 Norte 16 Norte 0 -- -- 91
2020-02-18 00:00:00 2.2 15 Norte 17 Norte 0 -- -- 88
2020-02-17 23:00:00 2.9 10 Noroeste 17 Noroeste 0 -- -- 86
2020-02-17 22:00:00 2.4 10 Norte 17 Noroeste 0 -- -- 85
2020-02-17 21:00:00 4.4 12 Noroeste 20 Noroeste 0 -- -- 78
2020-02-17 20:00:00 5.4 5 Nordeste 22 Noroeste 0 -- -- 76
2020-02-17 19:00:00 8.5 13 Norte 25 Noroeste 0 -- -- 65
2020-02-17 18:00:00 11.7 17 Norte 25 Norte 0 -- -- 54
2020-02-17 17:00:00 12 18 Norte 27 Noroeste 0 -- -- 55
2020-02-17 16:00:00 13.1 14 Norte 24 Norte 0 -- -- 58
2020-02-17 15:00:00 13.6 13 Norte 25 Norte 0 -- -- 60
2020-02-17 14:00:00 13.5 3 Oeste 13 Norte 0 -- -- 65
2020-02-17 13:00:00 12.1 9 Norte 14 Noroeste 0 -- -- 74
2020-02-17 12:00:00 10.7 10 Noroeste 19 Norte 0 -- -- 80
2020-02-17 11:00:00 9.8 13 Norte 22 Norte 0 -- -- 89
2020-02-17 10:00:00 11.1 11 Sudoeste 27 Sudoeste 0 -- -- 93
2020-02-17 09:00:00 10.8 16 Sudoeste 29 Sudoeste 0 -- -- 94
2020-02-17 08:00:00 10.8 17 Sudoeste 27 Sudoeste 0 -- -- 90
2020-02-17 07:00:00 10.4 10 Sur 28 Sur 0 -- -- 90
2020-02-17 06:00:00 10.4 16 Sur 30 Sur 0 -- -- 89
2020-02-17 05:00:00 10.4 17 Sur 33 Sur 0 -- -- 88
2020-02-17 04:00:00 10.5 23 Sur 34 Sur 0 -- -- 87
2020-02-17 03:00:00 10.3 19 Sur 35 Sur 0 -- -- 87
2020-02-17 02:00:00 10.3 21 Sur 36 Sur 0 -- -- 88
2020-02-17 01:00:00 10.4 19 Sur 30 Sur 0 -- -- 86
2020-02-17 00:00:00 10.6 16 Sudoeste 25 Sudoeste 0 -- -- 85
2020-02-16 23:00:00 10.3 4 Sudeste 19 Sur 0 -- -- 85
2020-02-16 22:00:00 10.9 12 Sur 21 Sudoeste 0 -- -- 83
2020-02-16 21:00:00 11.2 13 Sudoeste 29 Sudoeste 0 -- -- 81
2020-02-16 20:00:00 11.8 17 Sur 26 Sur 0 -- -- 80
2020-02-16 19:00:00 12 14 Sudoeste 29 Sudoeste 0 -- -- 80
2020-02-16 18:00:00 12.6 17 Sudoeste 30 Sudoeste 0 -- -- 78
2020-02-16 17:00:00 12.8 22 Sudoeste 46 Sudoeste 0 -- -- 77
2020-02-16 16:00:00 12.9 24 Sudoeste 40 Sudoeste 0 -- -- 76
2020-02-16 15:00:00 12.5 21 Sudoeste 37 Sudoeste 0 -- -- 76
2020-02-16 14:00:00 12.8 26 Sudoeste 47 Sudoeste 0 -- -- 77
2020-02-16 13:00:00 11.8 25 Sudoeste 44 Sudoeste 0 -- -- 79
2020-02-16 12:00:00 10.8 28 Sudoeste 39 Sudoeste 0 -- -- 81
2020-02-16 11:00:00 10 24 Sudoeste 35 Sudoeste 0 -- -- 84
2020-02-16 10:00:00 9.7 21 Sudoeste 39 Sudoeste 0 -- -- 88
2020-02-16 09:00:00 8.4 9 Sudoeste 20 Sudoeste 0 -- -- 94
2020-02-16 08:00:00 7.9 11 Sudoeste 19 Sudoeste 0 -- -- 96
2020-02-16 07:00:00 6.3 11 Sur 21 Sur 0 -- -- 96
2020-02-16 06:00:00 6.8 12 Sur 18 Sudoeste 0 -- -- 95
2020-02-16 05:00:00 6.6 6 Sur 17 Sur 0 -- -- 97
2020-02-16 04:00:00 5.9 6 Sur 10 Sur 0 -- -- 97
2020-02-16 03:00:00 3.6 5 Este 9 Este 0 -- -- 96
2020-02-16 02:00:00 4.2 0 Calma 10 Sur 0 -- -- 95
2020-02-16 01:00:00 4.5 9 Sur 13 Sudeste 0 -- -- 96
2020-02-16 00:00:00 6 7 Sudoeste 13 Sur 0 -- -- 92
2020-02-15 23:00:00 6.4 6 Sudoeste 13 Sur 0 -- -- 92
2020-02-15 22:00:00 7.4 8 Sur 10 Sur 0 -- -- 93
2020-02-15 21:00:00 6.6 3 Sudoeste 9 Sudoeste 0 -- -- 90
2020-02-15 20:00:00 7.7 0 Calma 8 Oeste 0 -- -- 86
2020-02-15 19:00:00 10.7 6 Oeste 13 Sudoeste 0 -- -- 80
2020-02-15 18:00:00 13 10 Sudoeste 22 Sudoeste 0 -- -- 75
2020-02-15 17:00:00 14 13 Sur 23 Sur 0 -- -- 72
2020-02-15 16:00:00 12.6 15 Sur 23 Sur 0 -- -- 80
2020-02-15 15:00:00 10.9 12 Sur 19 Sur 0 -- -- 96
2020-02-15 14:00:00 7.6 9 Sur 19 Sudeste 0 -- -- 98
2020-02-15 13:00:00 5.9 8 Sur 17 Sur 0 -- -- 98
2020-02-15 12:00:00 5 5 Sur 11 Sudeste 0 -- -- 98
2020-02-15 11:00:00 4 3 Sudoeste 8 Sur 0 -- -- 98
2020-02-15 10:00:00 3.3 5 Sudoeste 8 Sudeste 0 -- -- 98
2020-02-15 09:00:00 3.1 7 Sudeste 15 Sudeste 0 -- -- 98
2020-02-15 08:00:00 3.6 9 Sudeste 12 Sudeste 0 -- -- 97
2020-02-15 07:00:00 3.7 0 Calma 12 Noroeste 0 -- -- 98
2020-02-15 06:00:00 3.1 3 Noroeste 10 Noroeste 0 -- -- 97
2020-02-15 05:00:00 3.3 3 Nordeste 10 Nordeste 0 -- -- 97
2020-02-15 04:00:00 3.2 8 Norte 17 Noroeste 0 -- -- 97
2020-02-15 03:00:00 1.4 10 Noroeste 13 Noroeste 0 -- -- 97
2020-02-15 02:00:00 1 8 Noroeste 12 Noroeste 0 -- -- 95
2020-02-15 01:00:00 1.8 4 Norte 12 Norte 0 -- -- 95
2020-02-15 00:00:00 2 10 Norte 11 Noroeste 0 -- -- 94
2020-02-14 23:00:00 2.8 6 Noroeste 9 Noroeste 0 -- -- 93
2020-02-14 22:00:00 3.8 5 Noroeste 8 Este 0 -- -- 92
2020-02-14 21:00:00 5.1 5 Este 8 Este 0 -- -- 90
2020-02-14 20:00:00 6.8 5 Nordeste 12 Nordeste 0 -- -- 88
2020-02-14 19:00:00 8.9 10 Este 12 Este 0 -- -- 82
2020-02-14 18:00:00 11.6 9 Sudeste 15 Sudeste 0 -- -- 75
2020-02-14 17:00:00 11.9 8 Este 13 Este 0 -- -- 77
2020-02-14 16:00:00 11.3 6 Este 13 Este 0 -- -- 79
2020-02-14 15:00:00 9.7 4 Sur 10 Sudoeste 0 -- -- 87
2020-02-14 14:00:00 7.5 0 Calma 10 Sudoeste 0 -- -- 96
2020-02-14 13:00:00 6.6 0 Calma 11 Sur 0 -- -- 97
2020-02-14 12:00:00 6 3 Sudoeste 10 Sur 0 -- -- 98
2020-02-14 11:00:00 5.7 4 Sudoeste 9 Sudoeste 0 -- -- 97
2020-02-14 10:00:00 5.4 5 Oeste 8 Noroeste 0 -- -- 98
2020-02-14 09:00:00 5.3 3 Sudoeste 9 Sudoeste 0 -- -- 97
2020-02-14 08:00:00 4.6 3 Sudoeste 8 Sudoeste 0 -- -- 97
2020-02-14 07:00:00 4.4 5 Sur 13 Sur 0 -- -- 97
2020-02-14 06:00:00 4.1 5 Sur 9 Sur 0 -- -- 97
2020-02-14 05:00:00 3.5 3 Sur 6 Sudoeste 0 -- -- 96
2020-02-14 04:00:00 2.6 2 Sudoeste 10 Sur 0 -- -- 96
2020-02-14 03:00:00 3.1 3 Sudoeste 12 Sur 0 -- -- 94
2020-02-14 02:00:00 4.2 7 Sur 10 Sur 0 -- -- 96
2020-02-14 01:00:00 5.5 6 Sudoeste 8 Sudoeste 0 -- -- 94
2020-02-14 00:00:00 5.9 4 Sur 12 Oeste 0 -- -- 92
2020-02-13 23:00:00 6.2 4 Sudoeste 14 Sudoeste 0 -- -- 92
2020-02-13 22:00:00 8.3 14 Sudoeste 25 Sudoeste 0 -- -- 90
2020-02-13 21:00:00 8.5 10 Sur 19 Sur 0 -- -- 88
2020-02-13 20:00:00 9.6 9 Sur 21 Oeste 0 -- -- 84
2020-02-13 19:00:00 11.1 10 Sudoeste 29 Oeste 0 -- -- 78
2020-02-13 18:00:00 13.1 20 Sudoeste 35 Sudoeste 0 -- -- 71
2020-02-13 17:00:00 13.9 23 Sudoeste 37 Sudoeste 0 -- -- 67
2020-02-13 16:00:00 13.6 27 Sudoeste 43 Sudoeste 0 -- -- 69
2020-02-13 15:00:00 13.3 25 Sudoeste 39 Sudoeste 0 -- -- 71
2020-02-13 14:00:00 13.1 27 Sudoeste 37 Sudoeste 0 -- -- 73
2020-02-13 13:00:00 11.7 24 Sudoeste 49 Sudoeste 0 -- -- 78
2020-02-13 12:00:00 12.3 26 Sudoeste 45 Sudoeste 0 -- -- 77
2020-02-13 11:00:00 10.7 24 Sudoeste 33 Sudoeste 0 -- -- 85
2020-02-13 10:00:00 9.9 11 Sudoeste 28 Sudoeste 0 -- -- 90
2020-02-13 09:00:00 9.5 15 Sudoeste 26 Sudoeste 0 -- -- 91
2020-02-13 08:00:00 9.4 12 Sur 23 Sur 0 -- -- 93
2020-02-13 07:00:00 8.6 7 Sur 17 Sudoeste 0 -- -- 93
2020-02-13 06:00:00 9.5 10 Sudoeste 18 Sudoeste 0 -- -- 92
2020-02-13 05:00:00 9.3 14 Sudoeste 26 Sudoeste 0 -- -- 94
2020-02-13 04:00:00 8.8 8 Sudoeste 25 Sur 0 -- -- 95
2020-02-13 03:00:00 9 13 Sudoeste 25 Sur 0 -- -- 91
2020-02-13 02:00:00 9.6 5 Sur 10 Sudoeste 0 -- -- 90
2020-02-13 01:00:00 9.8 10 Sudoeste 12 Sudoeste 0 -- -- 91
2020-02-13 00:00:00 10.3 5 Oeste 14 Sudoeste 0 -- -- 88
2020-02-12 23:00:00 10.3 6 Sur 10 Sudoeste 0 -- -- 89
2020-02-12 22:00:00 10.5 3 Oeste 14 Sur 0 -- -- 87
2020-02-12 21:00:00 10.4 3 Sur 6 Sur 0 -- -- 87
2020-02-12 20:00:00 11.2 4 Sur 6 Sudeste 0 -- -- 86
2020-02-12 19:00:00 12 6 Sudeste 10 Sur 0 -- -- 81
2020-02-12 18:00:00 13.5 7 Sur 10 Sur 0 -- -- 74
2020-02-12 17:00:00 13.2 6 Sur 9 Sur 0 -- -- 75
2020-02-12 16:00:00 13.3 5 Sur 10 Sudeste 0 -- -- 73
2020-02-12 15:00:00 12.9 5 Nordeste 11 Norte 0 -- -- 76
2020-02-12 14:00:00 12.1 6 Norte 10 Nordeste 0 -- -- 81
2020-02-12 13:00:00 9.7 6 Este 11 Nordeste 0 -- -- 93
2020-02-12 12:00:00 8.6 5 Nordeste 9 Nordeste 0 -- -- 95
2020-02-12 11:00:00 7.7 5 Nordeste 9 Este 0 -- -- 96
2020-02-12 10:00:00 6.9 6 Nordeste 11 Nordeste 0 -- -- 96
2020-02-12 09:00:00 5.9 2 Noroeste 8 Norte 0 -- -- 96
2020-02-12 08:00:00 5.4 6 Norte 12 Norte 0 -- -- 95
2020-02-12 07:00:00 5.3 4 Norte 8 Noroeste 0 -- -- 94
2020-02-12 06:00:00 5.7 0 Calma 10 Este 0 -- -- 94
2020-02-12 05:00:00 6.4 6 Noroeste 8 Noroeste 0 -- -- 91
2020-02-12 04:00:00 7.7 4 Norte 8 Norte 0 -- -- 91
2020-02-12 03:00:00 8.4 6 Norte 10 Norte 0 -- -- 92
2020-02-12 02:00:00 8.8 0 Calma 10 Noroeste 0 -- -- 92
2020-02-12 01:00:00 9 8 Noroeste 9 Noroeste 0 -- -- 90
2020-02-12 00:00:00 10.1 8 Sur 10 Sur 0 -- -- 88
2020-02-11 23:00:00 10.4 4 Este 10 Norte 0 -- -- 85
2020-02-11 22:00:00 11.2 5 Noroeste 6 Norte 0 -- -- 83
2020-02-11 21:00:00 11.8 0 Calma 18 Noroeste 0 -- -- 82
2020-02-11 20:00:00 12.1 13 Noroeste 17 Oeste 0 -- -- 81
2020-02-11 19:00:00 12.8 8 Sur 17 Sudoeste 0 -- -- 82
2020-02-11 18:00:00 13.8 12 Sur 21 Sur 0 -- -- 75
2020-02-11 17:00:00 14.7 15 Sur 24 Sur 0 -- -- 70
2020-02-11 16:00:00 15.4 13 Sur 19 Sur 0 -- -- 71
2020-02-11 15:00:00 15.3 7 Sur 17 Sur 0 -- -- 67
2020-02-11 14:00:00 15.3 9 Sur 13 Sur 0 -- -- 68
2020-02-11 13:00:00 14.1 4 Sudeste 14 Sur 0 -- -- 72
2020-02-11 12:00:00 11.5 7 Sur 17 Sudoeste 0 -- -- 84
2020-02-11 11:00:00 10.1 14 Sudoeste 22 Sur 0 -- -- 88
2020-02-11 10:00:00 7.7 9 Sudoeste 20 Sudoeste 0 -- -- 97
2020-02-11 09:00:00 7.5 4 Sudoeste 14 Sudoeste 0 -- -- 97
2020-02-11 08:00:00 7.8 10 Sudoeste 18 Sudoeste 0 -- -- 97
2020-02-11 07:00:00 7.7 12 Sudoeste 19 Sudoeste 0 -- -- 97
2020-02-11 06:00:00 7.6 10 Sudoeste 17 Sudoeste 0 -- -- 96
2020-02-11 05:00:00 7.5 10 Sudoeste 15 Sur 0 -- -- 96
2020-02-11 04:00:00 7.7 5 Sur 13 Sur 0 -- -- 95
2020-02-11 03:00:00 8.1 6 Sur 13 Sur 0 -- -- 94
2020-02-11 02:00:00 8.4 10 Sur 17 Sur 0 -- -- 94
2020-02-11 01:00:00 8.2 8 Sudoeste 15 Sudoeste 0 -- -- 92
2020-02-11 00:00:00 9 9 Sudoeste 18 Sudoeste 0 -- -- 90
2020-02-10 23:00:00 9.7 8 Sudoeste 13 Sudoeste 0 -- -- 90
2020-02-10 22:00:00 10 9 Sudoeste 17 Sudoeste 0 -- -- 89
2020-02-10 21:00:00 9.9 13 Sudoeste 17 Sudoeste 0 -- -- 88
2020-02-10 20:00:00 11 10 Sudoeste 19 Sudoeste 0 -- -- 83
2020-02-10 19:00:00 12.3 13 Sudoeste 29 Sudoeste 0 -- -- 78
2020-02-10 18:00:00 14.5 17 Sudoeste 49 Oeste 0 -- -- 71
2020-02-10 17:00:00 15.1 26 Sudoeste 49 Sudoeste 0 -- -- 68
2020-02-10 16:00:00 15.7 26 Sudoeste 44 Sudoeste 0 -- -- 67
2020-02-10 15:00:00 15.4 28 Sudoeste 45 Sudoeste 0 -- -- 68
2020-02-10 14:00:00 15.2 29 Sudoeste 40 Sudoeste 0 -- -- 71
2020-02-10 13:00:00 14.5 24 Sudoeste 38 Sudoeste 0 -- -- 75
2020-02-10 12:00:00 13.1 25 Sudoeste 40 Sudoeste 0 -- -- 81
2020-02-10 11:00:00 12.8 26 Sudoeste 43 Sudoeste 0 -- -- 84
2020-02-10 10:00:00 11.1 26 Sudoeste 42 Sudoeste 0 -- -- 93
2020-02-10 09:00:00 10.1 17 Sudoeste 28 Sudoeste 0 -- -- 95
2020-02-10 08:00:00 9.9 13 Sur 25 Sur 0 -- -- 96
2020-02-10 07:00:00 9.6 14 Sudoeste 27 Sudoeste 0 -- -- 94
2020-02-10 06:00:00 10.3 19 Sur 33 Sudoeste 0 -- -- 93
2020-02-10 05:00:00 10.4 25 Sudoeste 45 Sudoeste 0 -- -- 93
2020-02-10 04:00:00 10 28 Sudoeste 44 Oeste 0 -- -- 93
2020-02-10 03:00:00 10.2 15 Sudoeste 26 Sudoeste 0 -- -- 91
2020-02-10 02:00:00 10.1 13 Sudoeste 28 Sudoeste 0 -- -- 89
2020-02-10 01:00:00 10.2 14 Sudoeste 26 Sudoeste 0 -- -- 88
2020-02-10 00:00:00 10.2 12 Sudoeste 20 Sur 0 -- -- 88
2020-02-09 23:00:00 10.3 13 Sudoeste 31 Sudoeste 0 -- -- 87
2020-02-09 22:00:00 10.4 19 Sudoeste 30 Sudoeste 0 -- -- 86
2020-02-09 21:00:00 10.9 14 Sudoeste 31 Sudoeste 0 -- -- 82
2020-02-09 20:00:00 11.2 10 Sudoeste 24 Sudoeste 0 -- -- 81
2020-02-09 19:00:00 11.5 18 Sudoeste 27 Sudoeste 0 -- -- 79
2020-02-09 18:00:00 12.1 21 Sudoeste 31 Oeste 0 -- -- 76
2020-02-09 17:00:00 13 22 Sudoeste 35 Sudoeste 0 -- -- 73
2020-02-09 16:00:00 12.8 21 Sudoeste 31 Sudoeste 0 -- -- 74
2020-02-09 15:00:00 12.3 22 Sudoeste 36 Sudoeste 0 -- -- 74
2020-02-09 14:00:00 12.2 24 Sudoeste 39 Sudoeste 0 -- -- 74
2020-02-09 13:00:00 11.7 21 Sudoeste 35 Sudoeste 0 -- -- 74
2020-02-09 12:00:00 10.8 21 Sudoeste 31 Sudoeste 0 -- -- 78
2020-02-09 11:00:00 9.5 18 Sudoeste 24 Sudoeste 0 -- -- 93
2020-02-09 10:00:00 7.7 6 Sur 11 Sur 0 -- -- 97
2020-02-09 09:00:00 6.1 5 Sudoeste 14 Sur 0 -- -- 96
2020-02-09 08:00:00 5.7 8 Sur 12 Sudoeste 0 -- -- 95
2020-02-09 07:00:00 6 8 Sudoeste 15 Sur 0 -- -- 95
2020-02-09 06:00:00 5.7 7 Sur 12 Sur 0 -- -- 94
2020-02-09 05:00:00 5.5 6 Sur 13 Sur 0 -- -- 95
2020-02-09 04:00:00 4.7 9 Sudoeste 15 Sur 0 -- -- 94
2020-02-09 03:00:00 4.6 8 Sur 11 Sur 0 -- -- 95
2020-02-09 02:00:00 3.2 6 Sur 12 Sur 0 -- -- 95
2020-02-09 01:00:00 3 6 Sur 9 Sur 0 -- -- 94
2020-02-09 00:00:00 3.4 3 Sudoeste 8 Sudoeste 0 -- -- 89
2020-02-08 23:00:00 4.5 6 Sudoeste 9 Sudoeste 0 -- -- 91
2020-02-08 22:00:00 4.9 5 Sudoeste 9 Sur 0 -- -- 89
2020-02-08 21:00:00 6.7 5 Sur 12 Sur 0 -- -- 87
2020-02-08 20:00:00 7.8 7 Sur 11 Sudoeste 0 -- -- 84
2020-02-08 19:00:00 9.4 10 Sudoeste 16 Sudoeste 0 -- -- 73
2020-02-08 18:00:00 11.9 9 Sudoeste 26 Sudoeste 0 -- -- 64
2020-02-08 17:00:00 12.9 20 Sudoeste 33 Sudoeste 0 -- -- 59
2020-02-08 16:00:00 13.2 19 Sudoeste 31 Oeste 0 -- -- 60
2020-02-08 15:00:00 12.7 17 Sudoeste 32 Sudoeste 0 -- -- 66
2020-02-08 14:00:00 11.7 15 Sudoeste 26 Oeste 0 -- -- 67
2020-02-08 13:00:00 12 15 Sudoeste 22 Sudoeste 0 -- -- 68
2020-02-08 12:00:00 11 14 Oeste 28 Sudoeste 0 -- -- 80
2020-02-08 11:00:00 8.2 12 Sudoeste 20 Sudoeste 0 -- -- 92
2020-02-08 10:00:00 8.1 11 Sudoeste 16 Sudoeste 1.2 -- -- 95
2020-02-08 09:00:00 8 13 Sur 20 Sur 0.4 -- -- 95
2020-02-08 08:00:00 7.7 8 Sur 16 Sur 0 -- -- 96
2020-02-08 07:00:00 7.6 10 Sur 18 Sur 0 -- -- 96
2020-02-08 06:00:00 7.3 10 Sur 15 Sur 0 -- -- 95
2020-02-08 05:00:00 7 5 Sur 13 Sur 0 -- -- 95
2020-02-08 04:00:00 6.6 10 Sur 16 Sur 0 -- -- 94
2020-02-08 03:00:00 6.6 11 Sur 17 Sudoeste 0 -- -- 93
2020-02-08 02:00:00 6.5 13 Sur 21 Sur 0 -- -- 93
2020-02-08 01:00:00 6.8 12 Sur 19 Sur 0 -- -- 92
2020-02-08 00:00:00 6.7 5 Sur 12 Sudoeste 0 -- -- 92
2020-02-07 23:00:00 6.4 6 Sur 14 Sur 0 -- -- 91
2020-02-07 22:00:00 5.6 5 Sudeste 10 Sudoeste 0 -- -- 90
2020-02-07 21:00:00 7.5 9 Sudoeste 17 Sur 0 -- -- 86
2020-02-07 20:00:00 9.3 7 Sur 10 Sudoeste 0 -- -- 82
2020-02-07 19:00:00 10.7 9 Oeste 21 Oeste 0 -- -- 76
2020-02-07 18:00:00 12.3 16 Oeste 23 Sudoeste 0 -- -- 68
2020-02-07 17:00:00 12.9 9 Sudoeste 21 Sudoeste 0 -- -- 68
2020-02-07 16:00:00 12.6 8 Sur 14 Sudoeste 0 -- -- 71
2020-02-07 15:00:00 11.9 6 Sudoeste 13 Sur 0 -- -- 76
2020-02-07 14:00:00 10.9 6 Sur 13 Este 0 -- -- 79
2020-02-07 13:00:00 8.6 7 Sudeste 13 Este 0 -- -- 85
2020-02-07 12:00:00 6.5 0 Calma 7 Norte 0 -- -- 93
2020-02-07 11:00:00 4.1 2 Norte 7 Norte 0 -- -- 96
2020-02-07 10:00:00 1.4 3 Noroeste 8 Oeste 0 -- -- 97
2020-02-07 09:00:00 -0.1 5 Noroeste 11 Oeste 0 -- -- 96
2020-02-07 08:00:00 -0.2 7 Noroeste 9 Noroeste 0 -- -- 95
2020-02-07 07:00:00 0.7 6 Norte 11 Norte 0 -- -- 95
2020-02-07 06:00:00 1.4 5 Noroeste 9 Noroeste 0 -- -- 96
2020-02-07 05:00:00 0.6 6 Norte 8 Norte 0 -- -- 94
2020-02-07 04:00:00 1.3 2 Noroeste 5 Este 0 -- -- 94
2020-02-07 03:00:00 1.8 4 Norte 9 Noroeste 0 -- -- 93
2020-02-07 02:00:00 2.4 3 Oeste 5 Noroeste 0 -- -- 93
2020-02-07 01:00:00 2.8 3 Norte 8 Este 0 -- -- 93
2020-02-07 00:00:00 3.1 3 Norte 9 Oeste 0 -- -- 92
2020-02-06 23:00:00 3.5 8 Oeste 9 Oeste 0 -- -- 91
2020-02-06 22:00:00 4.2 4 Noroeste 10 Norte 0 -- -- 89
2020-02-06 21:00:00 4.9 6 Norte 11 Norte 0 -- -- 87
2020-02-06 20:00:00 6.7 3 Sudoeste 10 Sudeste 0 -- -- 83
2020-02-06 19:00:00 8.5 10 Sudeste 12 Sudeste 0 -- -- 82
2020-02-06 18:00:00 11.9 6 Sudeste 10 Sur 0 -- -- 63
2020-02-06 17:00:00 12.7 6 Sur 11 Sur 0 -- -- 59
2020-02-06 16:00:00 11.5 4 Sur 9 Sur 0 -- -- 62
2020-02-06 15:00:00 10.6 3 Este 10 Este 0 -- -- 67
2020-02-06 14:00:00 9.5 5 Este 11 Nordeste 0 -- -- 71
2020-02-06 13:00:00 7.7 6 Nordeste 12 Nordeste 0 -- -- 74
2020-02-06 12:00:00 5.9 7 Nordeste 12 Norte 0 -- -- 79
2020-02-06 11:00:00 3.4 6 Norte 11 Noroeste 0 -- -- 90
2020-02-06 10:00:00 0.6 7 Noroeste 9 Noroeste 0 -- -- 95
2020-02-06 09:00:00 -1.6 4 Noroeste 6 Norte 0 -- -- 95
2020-02-06 08:00:00 -1.7 5 Norte 11 Norte 0 -- -- 94
2020-02-06 07:00:00 -1.2 10 Norte 14 Norte 0 -- -- 95
2020-02-06 06:00:00 -1 9 Noroeste 12 Noroeste 0 -- -- 95
2020-02-06 05:00:00 -0.6 11 Norte 14 Norte 0 -- -- 95
2020-02-06 04:00:00 -0.2 10 Noroeste 14 Noroeste 0 -- -- 95
2020-02-06 03:00:00 0 11 Noroeste 14 Noroeste 0 -- -- 95
2020-02-06 02:00:00 -0.2 10 Norte 13 Norte 0 -- -- 94
2020-02-06 01:00:00 0.6 12 Norte 20 Norte 0 -- -- 94
2020-02-06 00:00:00 0.4 9 Noroeste 12 Noroeste 0 -- -- 93
2020-02-05 23:00:00 1.2 9 Norte 12 Noroeste 0 -- -- 92
2020-02-05 22:00:00 2 9 Noroeste 14 Norte 0 -- -- 91
2020-02-05 21:00:00 2.9 5 Noroeste 13 Norte 0 -- -- 89
2020-02-05 20:00:00 4.1 11 Norte 16 Norte 0 -- -- 87
2020-02-05 19:00:00 6.9 6 Noroeste 10 Nordeste 0 -- -- 77
2020-02-05 18:00:00 10.1 10 Nordeste 27 Nordeste 0 -- -- 66
2020-02-05 17:00:00 10.7 19 Nordeste 28 Nordeste 0 -- -- 61
2020-02-05 16:00:00 10.8 17 Nordeste 35 Norte 0 -- -- 63
2020-02-05 15:00:00 10.2 19 Nordeste 29 Nordeste 0 -- -- 66
2020-02-05 14:00:00 9.4 18 Nordeste 28 Nordeste 0 -- -- 69
2020-02-05 13:00:00 8.3 21 Nordeste 35 Nordeste 0 -- -- 71
2020-02-05 12:00:00 6.9 21 Nordeste 35 Nordeste 0 -- -- 75
2020-02-05 11:00:00 5.6 24 Nordeste 33 Nordeste 0 -- -- 78
2020-02-05 10:00:00 3.4 15 Norte 22 Norte 0 -- -- 93
2020-02-05 09:00:00 0.6 13 Norte 18 Norte 0 -- -- 96
2020-02-05 08:00:00 0.1 14 Norte 18 Norte 0 -- -- 96
2020-02-05 07:00:00 1 14 Norte 20 Norte 0 -- -- 95
2020-02-05 06:00:00 1 13 Norte 19 Norte 0 -- -- 94
2020-02-05 05:00:00 2.2 10 Norte 14 Nordeste 0 -- -- 93
2020-02-05 04:00:00 2.4 9 Nordeste 13 Nordeste 0 -- -- 93
2020-02-05 03:00:00 3.7 12 Nordeste 28 Nordeste 0 -- -- 90
2020-02-05 02:00:00 5.7 23 Nordeste 31 Este 0 -- -- 88
2020-02-05 01:00:00 6.5 23 Este 33 Nordeste 0 -- -- 86
2020-02-05 00:00:00 7 23 Este 30 Este 0 -- -- 90
2020-02-04 23:00:00 6.6 21 Este 31 Nordeste 0 -- -- 91
2020-02-04 22:00:00 6.5 10 Nordeste 15 Nordeste 0 -- -- 96
2020-02-04 21:00:00 6.5 10 Norte 13 Norte 0 -- -- 96
2020-02-04 20:00:00 6.6 10 Norte 14 Norte 0 -- -- 94
2020-02-04 19:00:00 8.1 8 Noroeste 8 Noroeste 0 -- -- 90
2020-02-04 18:00:00 10.8 5 Nordeste 12 Nordeste 0 -- -- 86
2020-02-04 12:00:00 -- -- -- -- -- -- -- -- --
2020-02-04 11:00:00 6.5 5 Nordeste 14 Nordeste 0 -- -- 98
2020-02-04 10:00:00 5.8 8 Norte 14 Nordeste 0 -- -- 98
2020-02-04 09:00:00 5.5 2 Oeste 9 Norte 0 -- -- 98
2020-02-04 08:00:00 5.6 3 Sur 8 Noroeste 0 -- -- 98
2020-02-04 07:00:00 6 2 Noroeste 5 Noroeste 0 -- -- 98
2020-02-04 06:00:00 5.9 3 Oeste 7 Noroeste 0 -- -- 98
2020-02-04 05:00:00 6.1 4 Sudeste 10 Este 0 -- -- 97
2020-02-04 04:00:00 6.2 7 Norte 10 Norte 0 -- -- 98
2020-02-04 03:00:00 5.7 4 Nordeste 15 Norte 0 -- -- 97
2020-02-04 02:00:00 4.1 5 Norte 10 Norte 0 -- -- 98
2020-02-04 01:00:00 4.5 5 Noroeste 9 Norte 0 -- -- 97
2020-02-04 00:00:00 4.9 5 Norte 13 Norte 0 -- -- 96
2020-02-03 23:00:00 6.2 0 Calma 8 Sudoeste 0 -- -- 96
2020-02-03 22:00:00 6.5 4 Sudeste 10 Norte 0 -- -- 92
2020-02-03 21:00:00 8.2 4 Sudoeste 10 Sur 0 -- -- 92
2020-02-03 20:00:00 8.5 5 Este 13 Sudeste 0 -- -- 92
2020-02-03 19:00:00 10.1 10 Sudeste 16 Este 0 -- -- 90
2020-02-03 18:00:00 12.8 13 Sur 17 Sur 0 -- -- 84
2020-02-03 17:00:00 12.7 6 Sudeste 11 Sudeste 0 -- -- 85
2020-02-03 16:00:00 11.9 5 Sudeste 10 Sudoeste 0 -- -- 96
2020-02-03 15:00:00 10.6 4 Sudoeste 9 Sur 0 -- -- 97
2020-02-03 14:00:00 10.2 4 Norte 10 Noroeste 0 -- -- 98
2020-02-03 13:00:00 9.6 8 Norte 12 Noroeste 0 -- -- 98
2020-02-03 12:00:00 8.9 9 Norte 15 Noroeste 0 -- -- 98
2020-02-03 11:00:00 7.8 13 Noroeste 19 Noroeste 0 -- -- 98
2020-02-03 10:00:00 6.5 13 Noroeste 15 Norte 0 -- -- 98
2020-02-03 09:00:00 6 11 Norte 14 Noroeste 0 -- -- 98
2020-02-03 08:00:00 5.6 9 Noroeste 12 Noroeste 0 -- -- 97
2020-02-03 07:00:00 5.6 10 Norte 13 Norte 0 -- -- 97
2020-02-03 06:00:00 5.9 8 Norte 11 Norte 0 -- -- 97
2020-02-03 05:00:00 4.6 6 Noroeste 9 Noroeste 0 -- -- 97
2020-02-03 04:00:00 4.5 6 Noroeste 9 Noroeste 0 -- -- 95
2020-02-03 03:00:00 5.5 0 Calma 5 Sudeste 0 -- -- 95
2020-02-03 02:00:00 6.1 5 Sudeste 10 Este 0 -- -- 95
2020-02-03 01:00:00 6.2 0 Calma 6 Sudoeste 0 -- -- 93
2020-02-03 00:00:00 7 4 Sudoeste 6 Sudeste 0 -- -- 92
2020-02-02 23:00:00 8 6 Nordeste 10 Nordeste 0 -- -- 89
2020-02-02 22:00:00 10.9 5 Sudoeste 12 Sudoeste 0 -- -- 86
2020-02-02 21:00:00 11.5 6 Sur 13 Sur 0 -- -- 87
2020-02-02 20:00:00 12.6 9 Sudoeste 16 Sudoeste 0 -- -- 82
2020-02-02 19:00:00 13.9 8 Sudoeste 20 Sudoeste 0 -- -- 76
2020-02-02 18:00:00 15.7 12 Sudoeste 25 Sudoeste 0 -- -- 74
2020-02-02 17:00:00 17.3 14 Sudoeste 22 Sudoeste 0 -- -- 66
2020-02-02 16:00:00 17.1 16 Sudoeste 24 Sudoeste 0 -- -- 66
2020-02-02 15:00:00 16.7 15 Sudoeste 25 Sudoeste 0 -- -- 73
2020-02-02 14:00:00 15.5 14 Sudoeste 25 Sudoeste 0 -- -- 78
2020-02-02 13:00:00 14.6 12 Sudoeste 27 Sudoeste 0 -- -- 82
2020-02-02 12:00:00 13.3 9 Sudoeste 22 Sudoeste 0 -- -- 89
2020-02-02 11:00:00 12.8 13 Sudoeste 20 Sudoeste 0 -- -- 91
2020-02-02 10:00:00 11.8 9 Sur 22 Sur 0 -- -- 93
2020-02-02 09:00:00 11.5 10 Sudoeste 19 Sur 0 -- -- 94
2020-02-02 08:00:00 11.6 14 Sudoeste 22 Sudoeste 0 -- -- 94
2020-02-02 07:00:00 11.4 10 Sur 20 Sudoeste 0 -- -- 95
2020-02-02 06:00:00 10.9 12 Sudoeste 30 Sur 0 -- -- 95
2020-02-02 05:00:00 11.4 12 Sudoeste 24 Sur 0 -- -- 94
2020-02-02 04:00:00 11.5 10 Sur 16 Sur 0 -- -- 94
2020-02-02 03:00:00 11.6 9 Sur 19 Sur 0 -- -- 94
2020-02-02 02:00:00 11.5 16 Sur 26 Sur 0 -- -- 93
2020-02-02 01:00:00 11.9 18 Sudoeste 30 Sudoeste 0 -- -- 91
2020-02-02 00:00:00 11.4 13 Sudoeste 24 Sur 0 -- -- 93
2020-02-01 23:00:00 11.5 12 Sur 18 Sur 0 -- -- 94
2020-02-01 22:00:00 10.4 10 Sudeste 13 Sudeste 0 -- -- 92
2020-02-01 21:00:00 12 10 Sur 19 Sudoeste 0 -- -- 90
2020-02-01 20:00:00 12.1 4 Sudoeste 17 Sudoeste 0 -- -- 89
2020-02-01 19:00:00 13.3 9 Sudoeste 20 Sur 0 -- -- 87
2020-02-01 18:00:00 14.4 10 Sudoeste 31 Sudoeste 0 -- -- 82
2020-02-01 17:00:00 16.1 22 Sudoeste 38 Sudoeste 0 -- -- 74
2020-02-01 16:00:00 16.3 26 Sudoeste 36 Sudoeste 0 -- -- 72
2020-02-01 15:00:00 15.8 19 Sudoeste 34 Sudoeste 0 -- -- 79
2020-02-01 14:00:00 15.6 24 Sudoeste 43 Sudoeste 0 -- -- 79
2020-02-01 13:00:00 14.2 24 Sudoeste 38 Sudoeste 0 -- -- 85
2020-02-01 12:00:00 13.6 26 Sudoeste 39 Sudoeste 0 -- -- 88
2020-02-01 11:00:00 12.9 22 Sudoeste 35 Sudoeste 0 -- -- 93
2020-02-01 10:00:00 11.9 13 Sudoeste 25 Sur 0 -- -- 97
2020-02-01 09:00:00 11.3 11 Sur 23 Sur 0 -- -- 97
2020-02-01 08:00:00 11.1 14 Sudoeste 27 Sur 0 -- -- 97
2020-02-01 07:00:00 11 15 Sudoeste 36 Sudoeste 0 -- -- 96
2020-02-01 06:00:00 11.5 12 Sur 27 Sudoeste 0 -- -- 96
2020-02-01 05:00:00 11.8 18 Sudoeste 30 Sudoeste 0 -- -- 94
2020-02-01 04:00:00 11.9 17 Sudoeste 28 Sudoeste 0 -- -- 95
2020-02-01 03:00:00 12.1 15 Sudoeste 27 Sudoeste 0 -- -- 95
2020-02-01 02:00:00 11.9 17 Sudoeste 31 Sur 0 -- -- 95
2020-02-01 01:00:00 11.9 19 Sudoeste 36 Sudoeste 0 -- -- 94
2020-02-01 00:00:00 11.4 18 Sur 33 Sur 0.2 -- -- 94
2020-01-31 23:00:00 11.3 14 Sur 24 Sur 0.2 -- -- 94
2020-01-31 22:00:00 11.4 13 Sur 21 Sudoeste 0 -- -- 94
2020-01-31 21:00:00 11.4 14 Sur 23 Sur 0 -- -- 94
2020-01-31 20:00:00 11.6 18 Sur 32 Sur 0 -- -- 94
2020-01-31 19:00:00 11.8 13 Sur 26 Sudoeste 0 -- -- 93
2020-01-31 18:00:00 12.4 12 Sudoeste 23 Sur 0.2 -- -- 91
2020-01-31 17:00:00 13.1 10 Sur 24 Sudoeste 0 -- -- 84
2020-01-31 16:00:00 12.9 14 Sur 31 Sudoeste 0 -- -- 83
2020-01-31 15:00:00 13.2 27 Sudoeste 37 Sudoeste 0 -- -- 81
2020-01-31 14:00:00 12.8 14 Sudoeste 25 Sur 0 -- -- 88
2020-01-31 13:00:00 11.6 15 Sudoeste 26 Sudoeste 0 -- -- 92
2020-01-31 12:00:00 11.6 13 Sudoeste 23 Sur 0 -- -- 93
2020-01-31 11:00:00 11.2 13 Sur 23 Sudoeste 0 -- -- 96
2020-01-31 10:00:00 10.4 14 Sur 22 Sur 0 -- -- 97
2020-01-31 09:00:00 10 10 Sur 15 Sur 0 -- -- 97
2020-01-31 08:00:00 10.1 10 Sur 18 Sur 0 -- -- 97
2020-01-31 07:00:00 10 11 Sur 19 Sur 0 -- -- 97
2020-01-31 06:00:00 10.1 8 Sur 21 Sur 0 -- -- 97
2020-01-31 05:00:00 10.2 12 Sur 19 Sur 0 -- -- 97
2020-01-31 04:00:00 10.3 11 Sur 18 Sur 0 -- -- 97
2020-01-31 03:00:00 10.3 11 Sudoeste 17 Sudoeste 0 -- -- 97
2020-01-31 02:00:00 9.8 9 Sudoeste 19 Sur 0.2 -- -- 97
2020-01-31 01:00:00 9.8 13 Sur 20 Sur 0 -- -- 97
2020-01-31 00:00:00 9.8 10 Sur 31 Sur 0 -- -- 97
2020-01-30 23:00:00 9.8 11 Sudoeste 18 Sur 0 -- -- 97
2020-01-30 22:00:00 9.8 11 Sudoeste 23 Sudoeste 0.2 -- -- 97
2020-01-30 21:00:00 9.7 12 Sur 19 Sur 0 -- -- 97
2020-01-30 20:00:00 9.5 10 Sur 15 Sur 0 -- -- 97
2020-01-30 19:00:00 9.4 9 Sur 17 Sur 0 -- -- 96
2020-01-30 18:00:00 9.5 10 Sur 21 Sur 0.4 -- -- 96
2020-01-30 17:00:00 9.5 11 Sur 22 Sudoeste 0 -- -- 94
2020-01-30 16:00:00 9.8 12 Sur 19 Sur 0 -- -- 92
2020-01-30 15:00:00 9.5 14 Sudoeste 24 Sur 0 -- -- 90
2020-01-30 14:00:00 9.8 18 Sudoeste 30 Sudoeste 0 -- -- 86
2020-01-30 13:00:00 9.8 18 Sudoeste 31 Sudoeste 0 -- -- 86
2020-01-30 12:00:00 9.4 24 Sudoeste 35 Sudoeste 0 -- -- 85
2020-01-30 11:00:00 8.9 15 Sudoeste 28 Sudoeste 0 -- -- 89
2020-01-30 10:00:00 8.2 14 Sur 26 Sur 0 -- -- 91
2020-01-30 09:00:00 8 12 Sur 25 Sudoeste 0 -- -- 90
2020-01-30 08:00:00 8.2 16 Sudoeste 31 Sudoeste 0 -- -- 89
2020-01-30 07:00:00 8.8 25 Sudoeste 40 Sudoeste 0 -- -- 88
2020-01-30 06:00:00 8.5 13 Sudoeste 21 Sur 0 -- -- 94
2020-01-30 05:00:00 9 12 Sur 20 Sur 0 -- -- 94
2020-01-30 04:00:00 8.9 14 Sur 24 Sur 0 -- -- 94
2020-01-30 03:00:00 8.9 9 Sur 23 Sudoeste 0 -- -- 94
2020-01-30 02:00:00 9.3 15 Sur 31 Sur 0 -- -- 93
2020-01-30 01:00:00 9.7 15 Sur 24 Sudoeste 0 -- -- 94
2020-01-30 00:00:00 9.9 10 Sudoeste 28 Sudoeste 0 -- -- 93
2020-01-29 23:00:00 10.1 19 Sudoeste 26 Sudoeste 0.2 -- -- 95
2020-01-29 22:00:00 10.3 12 Sudoeste 23 Sudoeste 0 -- -- 94
2020-01-29 21:00:00 10.4 14 Sudoeste 32 Sudoeste 0 -- -- 94
2020-01-29 20:00:00 10.5 15 Sudoeste 26 Sudoeste 0.8 -- -- 94
2020-01-29 19:00:00 10.5 11 Sudoeste 25 Sudoeste 0.2 -- -- 93
2020-01-29 18:00:00 10.8 19 Sudoeste 30 Sudoeste 0 -- -- 92
2020-01-29 17:00:00 10.9 22 Sudoeste 35 Sudoeste 0 -- -- 93
2020-01-29 16:00:00 10.8 19 Sudoeste 30 Sudoeste 0 -- -- 94
2020-01-29 15:00:00 10.7 15 Sudoeste 25 Sudoeste 0 -- -- 95
2020-01-29 14:00:00 10.1 13 Sudoeste 30 Sudoeste 0 -- -- 94
2020-01-29 13:00:00 10 18 Sur 28 Sur 0.2 -- -- 93
2020-01-29 12:00:00 9.9 15 Sur 24 Sur 0.6 -- -- 94
2020-01-29 11:00:00 9.4 14 Sur 22 Sur 0.2 -- -- 95
2020-01-29 10:00:00 9.1 12 Sur 19 Sur 0.4 -- -- 95
2020-01-29 09:00:00 8.8 9 Sur 21 Sur 0.6 -- -- 95
2020-01-29 08:00:00 9 12 Sur 19 Sudoeste 0 -- -- 95
2020-01-29 07:00:00 9.3 12 Sudoeste 23 Sudoeste 0 -- -- 94
2020-01-29 06:00:00 9.3 13 Sur 21 Sudoeste 0 -- -- 95
2020-01-29 05:00:00 9.3 12 Sudoeste 25 Sudoeste 0 -- -- 94
2020-01-29 04:00:00 9.5 17 Sudoeste 24 Sudoeste 0 -- -- 94
2020-01-29 03:00:00 9.9 15 Sudoeste 26 Sudoeste 0 -- -- 94
2020-01-29 02:00:00 10.1 20 Sudoeste 28 Sudoeste 0 -- -- 93
2020-01-29 01:00:00 10.1 18 Sudoeste 30 Sudoeste 0 -- -- 94
2020-01-29 00:00:00 10.3 21 Sudoeste 39 Sudoeste 0 -- -- 94
2020-01-28 23:00:00 10.3 21 Sudoeste 36 Sudoeste 0.2 -- -- 96
2020-01-28 22:00:00 10.2 9 Sur 17 Sur 2 -- -- 97
2020-01-28 21:00:00 10.3 9 Sudoeste 23 Sudoeste 1.2 -- -- 96
2020-01-28 20:00:00 10.2 11 Sudoeste 17 Sudoeste 0.2 -- -- 96
2020-01-28 19:00:00 10.4 13 Sudoeste 23 Sudoeste 0.8 -- -- 95
2020-01-28 18:00:00 10.9 13 Sudoeste 20 Sudoeste 0 -- -- 94
2020-01-28 17:00:00 10.7 14 Sudoeste 22 Oeste 1.6 -- -- 94
2020-01-28 16:00:00 11.1 10 Sudoeste 23 Sudoeste 0 -- -- 91
2020-01-28 15:00:00 11.1 15 Sudoeste 26 Sudoeste 0 -- -- 90
2020-01-28 14:00:00 10.9 16 Sudoeste 25 Sudoeste 0 -- -- 89
2020-01-28 13:00:00 10.6 14 Sudoeste 22 Sudoeste 0 -- -- 89
2020-01-28 12:00:00 10 16 Sudoeste 27 Sudoeste 0 -- -- 89
2020-01-28 11:00:00 9.3 9 Sudoeste 17 Sudoeste 0 -- -- 93
2020-01-28 10:00:00 8.6 13 Sudoeste 20 Sudoeste 0 -- -- 95
2020-01-28 09:00:00 8.3 14 Sudoeste 23 Sudoeste 0 -- -- 95
2020-01-28 08:00:00 8.6 15 Sudoeste 24 Sudoeste 0 -- -- 94
2020-01-28 07:00:00 8.9 15 Sudoeste 27 Sudoeste 0 -- -- 93
2020-01-28 06:00:00 9.2 17 Sudoeste 26 Sudoeste 0.4 -- -- 96
2020-01-28 05:00:00 9 12 Sur 24 Sudoeste 0 -- -- 95
2020-01-28 04:00:00 9 16 Sudoeste 27 Sudoeste 0 -- -- 95
2020-01-28 03:00:00 9 15 Sudoeste 28 Sudoeste 0 -- -- 94
2020-01-28 02:00:00 9 19 Sudoeste 30 Sudoeste 0.4 -- -- 95
2020-01-28 01:00:00 9.1 21 Sudoeste 36 Sudoeste 0 -- -- 93
2020-01-28 00:00:00 9.2 23 Sudoeste 41 Sudoeste 0 -- -- 91
2020-01-27 23:00:00 9.3 23 Sudoeste 39 Sudoeste 0 -- -- 89
2020-01-27 22:00:00 8.6 16 Sudoeste 35 Sudoeste 0 -- -- 91
2020-01-27 21:00:00 9.3 24 Sudoeste 37 Sudoeste 0 -- -- 84
2020-01-27 20:00:00 9.4 17 Sudoeste 41 Sudoeste 0 -- -- 83
2020-01-27 19:00:00 9.6 20 Sudoeste 41 Sudoeste 0 -- -- 86
2020-01-27 18:00:00 9.8 24 Sudoeste 45 Sudoeste 0 -- -- 86
2020-01-27 17:00:00 10 28 Sudoeste 47 Sudoeste 0 -- -- 86
2020-01-27 16:00:00 10.9 37 Sudoeste 54 Sudoeste 0 -- -- 83
2020-01-27 15:00:00 9.7 28 Sudoeste 56 Sudoeste 0.2 -- -- 92
2020-01-27 14:00:00 9 23 Sudoeste 46 Sudoeste 0 -- -- 89
2020-01-27 13:00:00 9.3 28 Sudoeste 49 Sur 0 -- -- 87
2020-01-27 12:00:00 8.8 28 Sur 48 Sur 0 -- -- 86
2020-01-27 11:00:00 7.8 22 Sur 43 Sur 0 -- -- 89
2020-01-27 10:00:00 6.7 20 Sur 37 Sur 0 -- -- 90
2020-01-27 09:00:00 6.2 21 Sur 36 Sur 0 -- -- 90
2020-01-27 08:00:00 6.1 15 Sur 26 Sur 0 -- -- 89
2020-01-27 07:00:00 5.4 16 Sur 29 Sur 0 -- -- 91
2020-01-27 06:00:00 5.3 20 Sur 29 Sur 0 -- -- 91
2020-01-27 05:00:00 4.8 13 Sur 23 Sur 0 -- -- 93
2020-01-27 04:00:00 5.2 18 Sur 26 Sudoeste 0 -- -- 92
2020-01-27 03:00:00 5.1 11 Sur 18 Sudoeste 0 -- -- 93
2020-01-27 02:00:00 5.1 14 Sudoeste 26 Sur 0 -- -- 91
2020-01-27 01:00:00 5.2 8 Sudeste 17 Sudeste 0 -- -- 90
2020-01-27 00:00:00 5 4 Sur 15 Sudoeste 0 -- -- 88
2020-01-26 23:00:00 5.4 6 Sur 14 Sur 0 -- -- 88
2020-01-26 22:00:00 6.1 10 Sur 14 Sudoeste 0 -- -- 87
2020-01-26 21:00:00 6.6 11 Sur 21 Sur 0 -- -- 82
2020-01-26 20:00:00 6.6 12 Sudoeste 20 Sudoeste 0 -- -- 83
2020-01-26 19:00:00 6.9 12 Sudoeste 27 Sudoeste 0 -- -- 81
2020-01-26 18:00:00 7.4 14 Sudoeste 26 Oeste 0 -- -- 76
2020-01-26 17:00:00 8.5 20 Sudoeste 31 Sudoeste 0 -- -- 70
2020-01-26 16:00:00 8.6 19 Sudoeste 46 Sudoeste 0 -- -- 75
2020-01-26 15:00:00 7.2 17 Sudoeste 27 Oeste 0 -- -- 83
2020-01-26 14:00:00 5.8 12 Sudoeste 21 Sur 0 -- -- 95
2020-01-26 13:00:00 3.4 10 Sur 22 Sur 0 -- -- 98
2020-01-26 12:00:00 2.7 11 Sudoeste 17 Sudoeste 0 -- -- 98
2020-01-26 11:00:00 1.4 3 Oeste 6 Oeste 0 -- -- 98
2020-01-26 10:00:00 0.3 4 Noroeste 6 Noroeste 0.2 -- -- 98
2020-01-26 09:00:00 -0.4 3 Noroeste 5 Norte 0 -- -- 98
2020-01-26 08:00:00 -1.1 4 Norte 5 Norte 0 -- -- 97
2020-01-26 07:00:00 -1.2 2 Sudoeste 4 Sudoeste 0 -- -- 97
2020-01-26 06:00:00 -1 0 Calma 4 Oeste 0 -- -- 97
2020-01-26 05:00:00 -0.8 4 Sur 6 Sudeste 0 -- -- 97
2020-01-26 04:00:00 -1.9 0 Calma 4 Noroeste 0 -- -- 96
2020-01-26 03:00:00 -1.3 0 Calma 5 Sudeste 0 -- -- 96
2020-01-26 02:00:00 -0.4 3 Sur 7 Sur 0 -- -- 96
2020-01-26 01:00:00 -0.3 4 Sur 8 Sur 0 -- -- 95
2020-01-26 00:00:00 0.2 4 Sudoeste 6 Sudoeste 0 -- -- 94
2020-01-25 23:00:00 1 0 Calma 5 Noroeste 0 -- -- 93
2020-01-25 22:00:00 2.3 6 Noroeste 13 Noroeste 0 -- -- 93
2020-01-25 21:00:00 3.8 7 Oeste 9 Noroeste 0 -- -- 89
2020-01-25 20:00:00 6.2 4 Oeste 4 Oeste 0 -- -- 90
2020-01-25 19:00:00 6.7 2 Noroeste 8 Noroeste 0 -- -- 89
2020-01-25 18:00:00 7.3 6 Noroeste 10 Noroeste 0 -- -- 86
2020-01-25 17:00:00 7.7 5 Noroeste 10 Noroeste 0 -- -- 84
2020-01-25 16:00:00 7.7 2 Norte 9 Noroeste 0 -- -- 82
2020-01-25 15:00:00 7.9 4 Norte 10 Norte 0 -- -- 84
2020-01-25 14:00:00 7.2 4 Norte 9 Norte 0 -- -- 87
2020-01-25 13:00:00 6.5 6 Norte 11 Norte 0 -- -- 95
2020-01-25 12:00:00 5.9 7 Nordeste 11 Norte 0.2 -- -- 97
2020-01-25 11:00:00 4.8 8 Norte 14 Norte 0.6 -- -- 98
2020-01-25 10:00:00 3.8 6 Norte 11 Noroeste 0.6 -- -- 98
2020-01-25 09:00:00 3.1 8 Noroeste 14 Norte 0 -- -- 98
2020-01-25 08:00:00 2.5 10 Norte 15 Norte 0 -- -- 97
2020-01-25 07:00:00 2.2 10 Norte 16 Norte 0 -- -- 97
2020-01-25 06:00:00 1.1 9 Noroeste 13 Noroeste 0 -- -- 97
2020-01-25 05:00:00 0.9 8 Noroeste 10 Norte 0 -- -- 97
2020-01-25 04:00:00 1.2 7 Norte 12 Norte 0 -- -- 96
2020-01-25 03:00:00 1.9 10 Norte 12 Norte 0 -- -- 96
2020-01-25 02:00:00 1.7 6 Norte 10 Norte 0 -- -- 96
2020-01-25 01:00:00 1.9 7 Noroeste 9 Norte 0 -- -- 95
2020-01-25 00:00:00 3.5 2 Sudeste 9 Este 0 -- -- 93
2020-01-24 23:00:00 4.3 6 Este 10 Sudeste 0 -- -- 94
2020-01-24 22:00:00 4.4 8 Norte 14 Nordeste 0 -- -- 92
2020-01-24 21:00:00 5.4 5 Norte 5 Norte 0 -- -- 92
2020-01-24 20:00:00 6 0 Calma 5 Sudeste 0 -- -- 92
2020-01-24 19:00:00 6.2 3 Norte 7 Noroeste 0 -- -- 91
2020-01-24 18:00:00 6.8 4 Noroeste 6 Oeste 0 -- -- 91
2020-01-24 17:00:00 7 6 Oeste 16 Sudeste 0 -- -- 88
2020-01-24 16:00:00 8 9 Sudeste 15 Este 0 -- -- 78
2020-01-24 15:00:00 8.4 8 Este 16 Este 0 -- -- 79
2020-01-24 14:00:00 8.9 5 Este 12 Nordeste 0 -- -- 78
2020-01-24 13:00:00 7.6 5 Nordeste 11 Nordeste 0 -- -- 84
2020-01-24 12:00:00 5.8 9 Norte 13 Noroeste 0.2 -- -- 93
2020-01-24 11:00:00 4.6 0 Calma 8 Este 0 -- -- 93
2020-01-24 10:00:00 3.6 4 Norte 6 Norte 0 -- -- 96
2020-01-24 09:00:00 2.8 5 Norte 8 Norte 0 -- -- 96
2020-01-24 08:00:00 2.7 7 Norte 10 Norte 0.2 -- -- 96
2020-01-24 07:00:00 2.4 7 Norte 11 Norte 0 -- -- 95
2020-01-24 06:00:00 2.2 7 Noroeste 9 Noroeste 0 -- -- 94
2020-01-24 05:00:00 2.8 5 Noroeste 8 Noroeste 0 -- -- 94
2020-01-24 04:00:00 2.8 7 Noroeste 9 Noroeste 0 -- -- 94
2020-01-24 03:00:00 2.5 6 Norte 7 Norte 0 -- -- 94
2020-01-24 02:00:00 2.3 4 Norte 6 Oeste 0 -- -- 93
2020-01-24 01:00:00 2.2 0 Calma 5 Oeste 0 -- -- 92
2020-01-24 00:00:00 2.3 7 Este 16 Este 0 -- -- 92
2020-01-23 23:00:00 1.6 4 Nordeste 18 Nordeste 0 -- -- 90
2020-01-23 22:00:00 1.8 13 Nordeste 15 Nordeste 0 -- -- 92
2020-01-23 21:00:00 2.4 11 Nordeste 14 Nordeste 0 -- -- 90
2020-01-23 20:00:00 3.6 11 Nordeste 15 Nordeste 0 -- -- 88
2020-01-23 19:00:00 4.7 8 Nordeste 9 Nordeste 0 -- -- 80
2020-01-23 18:00:00 7.8 6 Nordeste 10 Nordeste 0 -- -- 74
2020-01-23 17:00:00 8.7 9 Nordeste 23 Este 0 -- -- 70
2020-01-23 16:00:00 9.6 15 Nordeste 24 Nordeste 0 -- -- 67
2020-01-23 15:00:00 9.2 14 Nordeste 23 Nordeste 0 -- -- 70
2020-01-23 14:00:00 8.1 14 Nordeste 22 Nordeste 0 -- -- 73
2020-01-23 13:00:00 7 12 Nordeste 21 Nordeste 0 -- -- 77
2020-01-23 12:00:00 4.8 17 Nordeste 26 Este 0 -- -- 84
2020-01-23 11:00:00 4.1 17 Este 23 Este 0 -- -- 88
2020-01-23 10:00:00 1.5 10 Nordeste 19 Nordeste 0 -- -- 95
2020-01-23 09:00:00 -0.3 10 Nordeste 18 Nordeste 0 -- -- 95
2020-01-23 08:00:00 -1.1 8 Nordeste 14 Nordeste 0 -- -- 95
2020-01-23 07:00:00 -1.1 12 Norte 19 Norte 0 -- -- 94
2020-01-23 06:00:00 -1.1 11 Norte 14 Norte 0 -- -- 94
2020-01-23 05:00:00 -0.6 11 Norte 18 Norte 0 -- -- 94
2020-01-23 04:00:00 -0.2 15 Norte 19 Norte 0 -- -- 94
2020-01-23 03:00:00 0.1 14 Norte 27 Norte 0 -- -- 93
2020-01-23 02:00:00 1 16 Nordeste 23 Nordeste 0 -- -- 94
2020-01-23 01:00:00 0.9 9 Norte 21 Nordeste 0 -- -- 89
2020-01-23 00:00:00 2.6 17 Nordeste 28 Nordeste 0 -- -- 89
2020-01-22 23:00:00 4.1 19 Nordeste 31 Nordeste 0 -- -- 87
2020-01-22 22:00:00 4.7 23 Nordeste 33 Nordeste 0 -- -- 85
2020-01-22 21:00:00 4.9 23 Nordeste 32 Nordeste 0 -- -- 84
2020-01-22 20:00:00 3.8 12 Norte 16 Norte 0 -- -- 84
2020-01-22 19:00:00 6.2 9 Nordeste 18 Nordeste 0 -- -- 77
2020-01-22 18:00:00 8.4 11 Nordeste 22 Nordeste 0 -- -- 71
2020-01-22 17:00:00 9.4 14 Este 31 Este 0 -- -- 67
2020-01-22 16:00:00 10.6 24 Este 36 Nordeste 0 -- -- 60
2020-01-22 15:00:00 10.3 27 Este 41 Nordeste 0 -- -- 63
2020-01-22 14:00:00 9.6 33 Este 51 Nordeste 0 -- -- 66
2020-01-22 13:00:00 9.2 34 Nordeste 55 Nordeste 0 -- -- 68
2020-01-22 12:00:00 8.3 35 Nordeste 59 Nordeste 0 -- -- 71
2020-01-22 11:00:00 7.2 37 Nordeste 53 Este 0 -- -- 75
2020-01-22 10:00:00 6.2 37 Nordeste 58 Nordeste 0 -- -- 83
2020-01-22 09:00:00 4.5 28 Nordeste 43 Nordeste 0 -- -- 88
2020-01-22 08:00:00 4.4 22 Nordeste 36 Nordeste 0 -- -- 88
2020-01-22 07:00:00 4.6 22 Nordeste 34 Nordeste 0 -- -- 88
2020-01-22 06:00:00 4.5 27 Nordeste 42 Nordeste 0 -- -- 87
2020-01-22 05:00:00 4.7 28 Nordeste 54 Nordeste 0 -- -- 85
2020-01-22 04:00:00 3.9 34 Nordeste 49 Nordeste 0 -- -- 88
2020-01-22 03:00:00 3 21 Nordeste 32 Nordeste 0 -- -- 89
2020-01-22 02:00:00 3.2 23 Nordeste 33 Nordeste 0 -- -- 87
2020-01-22 01:00:00 3.2 25 Nordeste 38 Nordeste 0 -- -- 86
2020-01-22 00:00:00 3.6 27 Nordeste 39 Nordeste 0 -- -- 80